createdAt,value
2022-07-31T00:00:41.339Z,71.00
2022-07-31T00:03:12.937Z,71.07
2022-07-31T00:05:44.695Z,71.38
2022-07-31T00:08:17.131Z,71.34
2022-07-31T00:10:48.432Z,71.24
2022-07-31T00:13:19.802Z,71.43
2022-07-31T00:16:11.141Z,71.66
2022-07-31T00:18:42.519Z,71.80
2022-07-31T00:21:14.054Z,71.63
2022-07-31T00:23:45.644Z,71.52
2022-07-31T00:26:16.986Z,71.78
2022-07-31T00:28:48.319Z,71.92
2022-07-31T00:31:19.712Z,71.85
2022-07-31T00:33:51.201Z,71.90
2022-07-31T00:36:29.914Z,71.82
2022-07-31T00:39:01.760Z,71.95
2022-07-31T00:41:41.085Z,72.09
2022-07-31T00:44:14.167Z,71.91
2022-07-31T00:46:45.520Z,72.09
2022-07-31T00:49:17.271Z,72.08
2022-07-31T00:51:48.675Z,72.43
2022-07-31T00:54:22.509Z,72.81
2022-07-31T00:56:54.226Z,72.47
2022-07-31T00:59:27.134Z,72.63
2022-07-31T01:01:59.298Z,72.71
2022-07-31T01:04:31.364Z,72.88
2022-07-31T01:07:04.168Z,72.62
2022-07-31T01:09:35.725Z,73.11
2022-07-31T01:12:16.173Z,72.95
2022-07-31T01:14:53.099Z,73.00
2022-07-31T01:17:27.627Z,72.81
2022-07-31T01:19:59.695Z,72.95
2022-07-31T01:22:56.627Z,73.13
2022-07-31T01:26:00.813Z,72.77
2022-07-31T01:29:04.107Z,72.74
2022-07-31T01:31:43.946Z,72.61
2022-07-31T01:34:31.834Z,72.77
2022-07-31T01:37:25.065Z,72.95
2022-07-31T01:40:08.452Z,72.73
2022-07-31T01:42:44.068Z,72.85
2022-07-31T01:45:17.974Z,72.94
2022-07-31T01:47:50.369Z,72.96
2022-07-31T01:50:42.646Z,73.09
2022-07-31T01:53:20.431Z,73.23
2022-07-31T01:55:56.561Z,73.17
2022-07-31T01:58:38.590Z,73.23
2022-07-31T02:01:14.025Z,73.35
2022-07-31T02:03:46.692Z,73.50
2022-07-31T02:06:23.359Z,73.62
2022-07-31T02:08:56.584Z,73.71
2022-07-31T02:11:28.768Z,73.74
2022-07-31T02:14:02.585Z,73.92
2022-07-31T02:16:34.306Z,73.64
2022-07-31T02:19:08.400Z,74.03
2022-07-31T02:21:40.309Z,74.13
2022-07-31T02:24:11.718Z,73.89
2022-07-31T02:26:43.293Z,73.74
2022-07-31T02:29:20.156Z,73.99
2022-07-31T02:32:03.196Z,73.86
2022-07-31T02:34:36.296Z,73.94
2022-07-31T02:37:08.375Z,73.95
2022-07-31T02:39:41.196Z,74.07
2022-07-31T02:42:12.926Z,73.94
2022-07-31T02:44:45.387Z,73.94
2022-07-31T02:47:17.032Z,74.04
2022-07-31T02:49:49.609Z,74.11
2022-07-31T02:52:21.279Z,74.19
2022-07-31T02:54:53.405Z,74.26
2022-07-31T02:57:24.846Z,74.34
2022-07-31T02:59:56.481Z,74.09
2022-07-31T03:02:36.922Z,74.29
2022-07-31T03:05:09.596Z,74.11
2022-07-31T03:07:41.007Z,73.97
2022-07-31T03:10:12.998Z,74.37
2022-07-31T03:12:47.446Z,74.39
2022-07-31T03:15:21.917Z,74.45
2022-07-31T03:17:54.301Z,74.39
2022-07-31T03:20:26.961Z,74.27
2022-07-31T03:23:00.283Z,74.64
2022-07-31T03:25:34.525Z,74.33
2022-07-31T03:28:05.856Z,74.35
2022-07-31T03:30:37.401Z,74.62
2022-07-31T03:33:08.741Z,74.70
2022-07-31T03:35:44.481Z,74.74
2022-07-31T03:38:38.634Z,74.56
2022-07-31T03:41:07.454Z,74.26
2022-07-31T03:43:47.497Z,74.45
2022-07-31T03:46:21.901Z,74.82
2022-07-31T03:48:53.496Z,74.84
2022-07-31T03:51:25.514Z,74.96
2022-07-31T03:53:56.963Z,75.11
2022-07-31T03:56:28.765Z,75.30
2022-07-31T03:59:00.274Z,75.37
2022-07-31T04:01:57.948Z,75.49
2022-07-31T04:04:26.076Z,75.57
2022-07-31T04:06:57.481Z,75.38
2022-07-31T04:09:29.265Z,75.78
2022-07-31T04:12:00.705Z,75.93
2022-07-31T04:14:32.241Z,75.74
2022-07-31T04:17:03.754Z,75.89
2022-07-31T04:19:35.232Z,75.87
2022-07-31T04:22:07.546Z,76.08
2022-07-31T04:24:39.160Z,75.89
2022-07-31T04:27:12.836Z,75.81
2022-07-31T04:29:45.649Z,76.15
2022-07-31T04:32:16.959Z,76.08
2022-07-31T04:34:48.362Z,76.44
2022-07-31T04:37:19.715Z,76.28
2022-07-31T04:39:51.033Z,76.26
2022-07-31T04:42:22.443Z,76.10
2022-07-31T04:44:54.141Z,75.97
2022-07-31T04:47:25.495Z,75.88
2022-07-31T04:49:56.816Z,75.89
2022-07-31T04:52:28.398Z,75.54
2022-07-31T04:54:59.707Z,75.32
2022-07-31T04:57:31.150Z,75.31
2022-07-31T05:00:03.240Z,75.18
2022-07-31T05:02:34.700Z,75.08
2022-07-31T05:05:06.493Z,74.80
2022-07-31T05:07:38.729Z,74.47
2022-07-31T05:10:10.163Z,74.50
2022-07-31T05:12:41.458Z,74.62
2022-07-31T05:15:14.061Z,74.63
2022-07-31T05:17:45.349Z,74.33
2022-07-31T05:20:16.673Z,73.73
2022-07-31T05:22:47.957Z,73.40
2022-07-31T05:25:19.263Z,73.41
2022-07-31T05:27:50.583Z,73.35
2022-07-31T05:30:30.112Z,73.23
2022-07-31T05:33:02.052Z,72.59
2022-07-31T05:35:33.445Z,72.01
2022-07-31T05:38:04.859Z,71.93
2022-07-31T05:40:43.269Z,71.57
2022-07-31T05:43:14.624Z,71.43
2022-07-31T05:45:49.356Z,71.20
2022-07-31T05:48:21.258Z,70.93
2022-07-31T05:50:52.759Z,70.78
2022-07-31T05:53:24.174Z,70.36
2022-07-31T05:55:55.463Z,70.46
2022-07-31T05:58:26.754Z,70.15
2022-07-31T06:00:58.342Z,70.50
2022-07-31T06:03:30.017Z,70.19
2022-07-31T06:06:02.898Z,69.76
2022-07-31T06:08:34.204Z,69.48
2022-07-31T06:11:05.894Z,69.75
2022-07-31T06:13:37.286Z,69.03
2022-07-31T06:16:12.815Z,68.95
2022-07-31T06:18:44.108Z,68.40
2022-07-31T06:23:45.755Z,67.96
2022-07-31T06:26:17.155Z,67.63
2022-07-31T06:28:49.726Z,67.08
2022-07-31T06:31:22.164Z,66.76
2022-07-31T06:33:53.494Z,66.24
2022-07-31T06:36:24.779Z,66.32
2022-07-31T06:38:56.158Z,65.38
2022-07-31T06:41:44.312Z,65.45
2022-07-31T06:44:17.061Z,65.31
2022-07-31T06:46:49.606Z,64.93
2022-07-31T06:49:21.036Z,65.22
2022-07-31T06:51:52.705Z,64.31
2022-07-31T06:54:26.786Z,64.12
2022-07-31T06:56:58.315Z,63.85
2022-07-31T06:59:39.965Z,63.24
2022-07-31T07:02:12.108Z,62.43
2022-07-31T07:04:57.822Z,62.38
2022-07-31T07:07:36.512Z,61.74
2022-07-31T07:10:08.023Z,61.11
2022-07-31T07:12:39.329Z,60.75
2022-07-31T07:15:10.915Z,60.12
2022-07-31T07:17:42.210Z,60.07
2022-07-31T07:20:13.775Z,59.33
2022-07-31T07:22:45.084Z,60.14
2022-07-31T07:25:16.490Z,59.59
2022-07-31T07:27:47.844Z,59.33
2022-07-31T07:30:19.384Z,59.30
2022-07-31T07:32:50.731Z,59.23
2022-07-31T07:35:22.061Z,58.67
2022-07-31T07:37:54.050Z,58.23
2022-07-31T07:40:26.775Z,58.17
2022-07-31T07:43:02.823Z,57.11
2022-07-31T07:45:34.620Z,57.03
2022-07-31T07:48:07.542Z,56.67
2022-07-31T07:50:39.192Z,55.95
2022-07-31T07:53:12.854Z,55.49
2022-07-31T07:55:44.185Z,54.90
2022-07-31T07:58:16.054Z,55.21
2022-07-31T08:00:47.383Z,54.63
2022-07-31T08:03:49.879Z,53.74
2022-07-31T08:06:10.145Z,53.66
2022-07-31T08:08:41.546Z,53.38
2022-07-31T08:11:16.979Z,52.69
2022-07-31T08:13:50.873Z,53.05
2022-07-31T08:16:22.619Z,52.42
2022-07-31T08:18:54.759Z,52.40
2022-07-31T08:21:26.572Z,51.25
2022-07-31T08:23:57.891Z,50.33
2022-07-31T08:26:52.069Z,50.12
2022-07-31T08:29:26.541Z,49.42
2022-07-31T08:32:00.173Z,48.92
2022-07-31T08:34:32.246Z,49.03
2022-07-31T08:37:50.968Z,48.88
2022-07-31T08:39:57.772Z,48.49
2022-07-31T08:42:29.104Z,48.50
2022-07-31T08:45:00.418Z,48.52
2022-07-31T08:47:33.275Z,47.32
2022-07-31T08:50:05.594Z,46.89
2022-07-31T08:52:37.309Z,46.53
2022-07-31T08:55:09.246Z,45.91
2022-07-31T08:57:41.405Z,46.26
2022-07-31T09:00:17.380Z,46.08
2022-07-31T09:02:49.829Z,46.00
2022-07-31T09:05:21.712Z,45.86
2022-07-31T09:07:53.102Z,45.80
2022-07-31T09:10:26.722Z,45.75
2022-07-31T09:12:58.107Z,45.96
2022-07-31T09:15:31.384Z,45.88
2022-07-31T09:18:02.714Z,45.59
2022-07-31T09:20:34.047Z,45.17
2022-07-31T09:23:10.016Z,44.74
2022-07-31T09:25:51.706Z,44.86
2022-07-31T09:28:35.659Z,44.55
2022-07-31T09:31:09.318Z,44.86
2022-07-31T09:33:46.121Z,44.75
2022-07-31T09:36:22.955Z,44.68
2022-07-31T09:38:56.330Z,44.74
2022-07-31T09:41:55.961Z,44.10
2022-07-31T09:44:18.968Z,43.87
2022-07-31T09:46:56.746Z,44.18
2022-07-31T09:49:32.734Z,44.30
2022-07-31T09:52:04.360Z,43.62
2022-07-31T09:54:35.659Z,43.14
2022-07-31T09:57:12.333Z,43.08
2022-07-31T09:59:44.320Z,42.93
2022-07-31T10:02:19.918Z,43.05
2022-07-31T10:04:54.162Z,43.20
2022-07-31T10:07:32.463Z,42.69
2022-07-31T10:10:07.002Z,43.68
2022-07-31T10:12:42.371Z,43.04
2022-07-31T10:15:17.200Z,41.31
2022-07-31T10:17:51.532Z,41.49
2022-07-31T10:20:24.869Z,40.67
2022-07-31T10:23:01.513Z,41.33
2022-07-31T10:25:35.840Z,40.63
2022-07-31T10:28:07.697Z,40.57
2022-07-31T10:30:39.465Z,40.89
2022-07-31T10:33:34.111Z,40.63
2022-07-31T10:36:16.729Z,40.16
2022-07-31T10:38:58.580Z,39.05
2022-07-31T10:41:47.818Z,38.77
2022-07-31T10:44:38.651Z,38.40
2022-07-31T10:47:14.865Z,38.48
2022-07-31T10:49:49.025Z,39.40
2022-07-31T10:52:31.056Z,38.22
2022-07-31T10:55:14.677Z,38.14
2022-07-31T10:57:57.288Z,38.73
2022-07-31T11:00:30.061Z,38.24
2022-07-31T11:03:13.397Z,37.48
2022-07-31T11:06:01.587Z,36.85
2022-07-31T11:08:52.181Z,36.99
2022-07-31T11:11:37.693Z,36.69
2022-07-31T11:14:09.320Z,37.73
2022-07-31T11:16:53.167Z,36.77
2022-07-31T11:19:24.839Z,37.22
2022-07-31T11:21:57.999Z,37.14
2022-07-31T11:24:29.350Z,37.34
2022-07-31T11:27:00.664Z,37.57
2022-07-31T11:29:58.991Z,36.87
2022-07-31T11:32:26.567Z,36.15
2022-07-31T11:34:58.184Z,35.71
2022-07-31T11:37:56.226Z,36.06
2022-07-31T11:40:26.520Z,36.18
2022-07-31T11:45:54.895Z,36.98
2022-07-31T11:48:27.931Z,36.30
2022-07-31T11:51:00.992Z,36.99
2022-07-31T11:53:40.836Z,36.41
2022-07-31T11:56:12.434Z,37.28
2022-07-31T11:58:48.733Z,36.83
2022-07-31T12:01:27.091Z,36.73
2022-07-31T12:04:07.532Z,37.81
2022-07-31T12:06:40.686Z,37.84
2022-07-31T12:10:02.589Z,38.30
2022-07-31T12:12:04.538Z,38.75
2022-07-31T12:14:38.481Z,38.68
2022-07-31T12:17:20.030Z,37.87
2022-07-31T12:19:56.105Z,38.57
2022-07-31T12:22:29.227Z,39.12
2022-07-31T12:25:03.152Z,38.61
2022-07-31T12:27:37.416Z,38.80
2022-07-31T12:30:16.633Z,39.23
2022-07-31T12:32:48.190Z,38.82
2022-07-31T12:35:19.536Z,39.05
2022-07-31T12:37:52.733Z,39.36
2022-07-31T12:40:26.106Z,39.13
2022-07-31T12:42:59.551Z,38.65
2022-07-31T12:45:36.246Z,39.05
2022-07-31T12:48:07.697Z,38.60
2022-07-31T12:50:39.058Z,38.61
2022-07-31T12:53:10.498Z,39.26
2022-07-31T12:55:41.805Z,39.41
2022-07-31T12:58:13.167Z,39.07
2022-07-31T13:00:44.466Z,38.66
2022-07-31T13:03:16.034Z,39.16
2022-07-31T13:05:51.879Z,38.56
2022-07-31T13:08:23.598Z,39.24
2022-07-31T13:10:54.898Z,39.37
2022-07-31T13:13:26.288Z,39.61
2022-07-31T13:15:57.593Z,39.20
2022-07-31T13:18:29.982Z,39.86
2022-07-31T13:21:02.108Z,39.47
2022-07-31T13:23:33.489Z,39.65
2022-07-31T13:26:05.008Z,39.73
2022-07-31T13:28:36.293Z,39.70
2022-07-31T13:31:07.684Z,40.02
2022-07-31T13:33:38.984Z,40.04
2022-07-31T13:36:10.328Z,39.73
2022-07-31T13:38:41.762Z,39.88
2022-07-31T13:41:27.817Z,40.22
2022-07-31T13:44:00.458Z,40.78
2022-07-31T13:46:32.151Z,40.36
2022-07-31T13:49:08.367Z,40.81
2022-07-31T13:51:39.989Z,40.66
2022-07-31T13:54:11.516Z,40.08
2022-07-31T13:56:43.751Z,40.21
2022-07-31T13:59:16.124Z,40.29
2022-07-31T14:02:03.063Z,40.76
2022-07-31T14:04:38.892Z,40.73
2022-07-31T14:07:12.819Z,40.24
2022-07-31T14:09:47.111Z,40.84
2022-07-31T14:12:26.237Z,41.19
2022-07-31T14:14:57.622Z,41.48
2022-07-31T14:17:28.907Z,42.61
2022-07-31T14:20:00.280Z,43.99
2022-07-31T14:22:32.546Z,45.50
2022-07-31T14:25:04.193Z,46.59
2022-07-31T14:27:35.917Z,48.07
2022-07-31T14:30:09.127Z,49.78
2022-07-31T14:32:40.750Z,49.69
2022-07-31T14:35:12.380Z,51.47
2022-07-31T14:37:43.733Z,52.06
2022-07-31T14:40:16.299Z,53.09
2022-07-31T14:42:47.622Z,54.55
2022-07-31T14:45:19.000Z,55.41
2022-07-31T14:47:50.329Z,55.87
2022-07-31T14:50:23.202Z,57.08
2022-07-31T14:52:56.150Z,57.60
2022-07-31T14:55:28.972Z,58.77
2022-07-31T14:58:00.277Z,58.96
2022-07-31T15:00:31.565Z,59.55
2022-07-31T15:03:02.942Z,60.16
2022-07-31T15:06:51.003Z,61.21
2022-07-31T15:08:26.588Z,61.63
2022-07-31T15:10:57.960Z,62.49
2022-07-31T15:13:29.250Z,62.51
2022-07-31T15:16:00.638Z,63.62
2022-07-31T15:18:31.966Z,64.41
2022-07-31T15:21:03.293Z,64.52
2022-07-31T15:23:35.990Z,65.38
2022-07-31T15:26:07.417Z,65.81
2022-07-31T15:28:38.766Z,65.97
2022-07-31T15:31:10.088Z,66.29
2022-07-31T15:33:41.546Z,66.62
2022-07-31T15:36:15.277Z,66.86
2022-07-31T15:38:46.742Z,67.06
2022-07-31T15:41:19.032Z,67.30
2022-07-31T15:43:50.549Z,67.59
2022-07-31T15:46:21.909Z,67.71
2022-07-31T15:48:53.241Z,68.05
2022-07-31T15:51:24.553Z,68.13
2022-07-31T15:53:56.076Z,68.18
2022-07-31T15:56:27.440Z,68.50
2022-07-31T15:59:00.128Z,68.57
2022-07-31T16:01:31.501Z,68.76
2022-07-31T16:04:03.072Z,68.97
2022-07-31T16:06:50.507Z,69.51
2022-07-31T16:09:23.935Z,69.30
2022-07-31T16:12:02.950Z,69.39
2022-07-31T16:14:36.595Z,69.48
2022-07-31T16:17:08.173Z,69.58
2022-07-31T16:19:40.263Z,69.80
2022-07-31T16:22:12.130Z,70.52
2022-07-31T16:24:43.554Z,71.13
2022-07-31T16:27:14.851Z,71.60
2022-07-31T16:29:59.487Z,72.04
2022-07-31T16:32:33.414Z,73.02
2022-07-31T16:35:06.242Z,73.77
2022-07-31T16:37:52.256Z,73.95
2022-07-31T16:40:30.683Z,75.09
2022-07-31T16:43:50.021Z,75.08
2022-07-31T16:45:56.805Z,75.74
2022-07-31T16:48:28.108Z,76.44
2022-07-31T16:51:00.585Z,77.06
2022-07-31T16:54:11.672Z,77.37
2022-07-31T16:56:23.397Z,77.48
2022-07-31T16:58:55.979Z,77.96
2022-07-31T17:01:58.550Z,78.15
2022-07-31T17:04:18.646Z,78.47
2022-07-31T17:06:50.025Z,78.73
2022-07-31T17:09:21.704Z,78.88
2022-07-31T17:11:55.794Z,79.18
2022-07-31T17:14:27.956Z,79.31
2022-07-31T17:16:59.361Z,79.62
2022-07-31T17:19:42.828Z,79.83
2022-07-31T17:22:18.742Z,79.86
2022-07-31T17:24:50.656Z,81.36
2022-07-31T17:27:22.545Z,81.42
2022-07-31T17:29:55.007Z,82.19
2022-07-31T17:32:26.843Z,82.39
2022-07-31T17:34:58.157Z,83.14
2022-07-31T17:37:30.491Z,83.35
2022-07-31T17:40:03.575Z,82.97
2022-07-31T17:42:34.897Z,83.26
2022-07-31T17:45:06.811Z,83.37
2022-07-31T17:47:38.451Z,83.34
2022-07-31T17:50:10.126Z,83.87
2022-07-31T17:52:41.411Z,84.17
2022-07-31T17:55:12.765Z,83.71
2022-07-31T17:57:44.046Z,83.89
2022-07-31T18:00:15.650Z,84.72
2022-07-31T18:02:46.985Z,84.12
2022-07-31T18:05:18.461Z,84.74
2022-07-31T18:07:51.756Z,84.67
2022-07-31T18:10:32.661Z,84.59
2022-07-31T18:13:15.078Z,84.71
2022-07-31T18:15:46.401Z,84.56
2022-07-31T18:18:17.819Z,85.02
2022-07-31T18:20:49.128Z,85.19
2022-07-31T18:23:22.887Z,85.63
2022-07-31T18:25:58.310Z,85.51
2022-07-31T18:28:31.497Z,85.11
2022-07-31T18:31:02.813Z,85.24
2022-07-31T18:33:34.400Z,85.45
2022-07-31T18:36:05.978Z,85.34
2022-07-31T18:38:38.069Z,85.57
2022-07-31T18:41:09.448Z,85.85
2022-07-31T18:43:40.774Z,85.60
2022-07-31T18:46:12.169Z,85.71
2022-07-31T18:48:43.470Z,85.08
2022-07-31T18:51:14.852Z,85.14
2022-07-31T18:53:46.186Z,85.87
2022-07-31T18:56:17.713Z,86.18
2022-07-31T18:58:49.005Z,85.71
2022-07-31T19:01:21.006Z,86.17
2022-07-31T19:03:52.941Z,85.81
2022-07-31T19:06:24.295Z,86.19
2022-07-31T19:08:56.606Z,86.19
2022-07-31T19:11:28.764Z,86.26
2022-07-31T19:14:00.101Z,85.99
2022-07-31T19:16:31.405Z,86.04
2022-07-31T19:19:03.881Z,86.44
2022-07-31T19:21:42.362Z,85.99
2022-07-31T19:24:14.528Z,86.45
2022-07-31T19:26:45.929Z,86.28
2022-07-31T19:29:18.673Z,86.40
2022-07-31T19:31:50.163Z,86.40
2022-07-31T19:34:21.603Z,86.06
2022-07-31T19:36:52.918Z,87.21
2022-07-31T19:39:24.252Z,86.33
2022-07-31T19:42:21.529Z,86.76
2022-07-31T19:44:46.960Z,86.18
2022-07-31T19:47:18.307Z,86.36
2022-07-31T19:49:51.274Z,86.96
2022-07-31T19:52:22.679Z,87.28
2022-07-31T19:54:54.013Z,87.45
2022-07-31T19:57:25.339Z,86.82
2022-07-31T19:59:56.655Z,87.47
2022-07-31T20:02:27.993Z,87.22
2022-07-31T20:05:00.168Z,87.04
2022-07-31T20:07:33.144Z,87.11
2022-07-31T20:10:09.728Z,87.50
2022-07-31T20:12:41.325Z,87.21
2022-07-31T20:15:12.810Z,87.49
2022-07-31T20:17:44.228Z,87.60
2022-07-31T20:20:16.321Z,87.60
2022-07-31T20:22:47.733Z,87.24
2022-07-31T20:25:20.266Z,87.64
2022-07-31T20:27:52.063Z,87.29
2022-07-31T20:30:25.002Z,87.58
2022-07-31T20:32:56.492Z,87.42
2022-07-31T20:35:33.093Z,87.67
2022-07-31T20:38:24.248Z,87.51
2022-07-31T20:40:56.166Z,87.68
2022-07-31T20:43:29.496Z,87.09
2022-07-31T20:46:00.827Z,87.67
2022-07-31T20:48:32.740Z,87.70
2022-07-31T20:51:05.518Z,87.99
2022-07-31T20:53:37.398Z,87.48
2022-07-31T20:56:09.049Z,87.93
2022-07-31T20:58:41.313Z,88.13
2022-07-31T21:01:13.117Z,87.91
2022-07-31T21:03:44.433Z,87.76
2022-07-31T21:06:16.442Z,87.97
2022-07-31T21:08:48.323Z,87.99
2022-07-31T21:11:20.364Z,87.83
2022-07-31T21:13:51.707Z,87.55
2022-07-31T21:16:24.481Z,87.93
2022-07-31T21:18:55.836Z,88.08
2022-07-31T21:21:27.241Z,88.42
2022-07-31T21:24:00.839Z,87.86
2022-07-31T21:26:33.653Z,88.15
2022-07-31T21:29:09.000Z,88.30
2022-07-31T21:31:49.179Z,88.84
2022-07-31T21:34:21.747Z,88.58
2022-07-31T21:36:53.584Z,88.98
2022-07-31T21:39:25.789Z,89.25
2022-07-31T21:41:57.357Z,89.21
2022-07-31T21:44:29.034Z,89.37
2022-07-31T21:47:03.130Z,89.69
2022-07-31T21:49:35.426Z,89.73
2022-07-31T21:52:07.676Z,89.85
2022-07-31T21:54:39.743Z,89.48
2022-07-31T21:57:11.037Z,89.89
2022-07-31T21:59:42.342Z,90.24
2022-07-31T22:02:14.243Z,89.98
2022-07-31T22:05:04.748Z,90.07
2022-07-31T22:07:46.426Z,90.42
2022-07-31T22:10:21.055Z,90.15
2022-07-31T22:12:52.864Z,90.06
2022-07-31T22:15:24.208Z,90.51
2022-07-31T22:17:55.546Z,90.47
2022-07-31T22:20:26.962Z,90.37
2022-07-31T22:22:58.531Z,90.53
2022-07-31T22:25:30.162Z,90.55
2022-07-31T22:28:03.117Z,90.91
2022-07-31T22:30:34.641Z,90.91
2022-07-31T22:33:06.128Z,90.87
2022-07-31T22:35:37.745Z,90.41
2022-07-31T22:38:11.001Z,91.03
2022-07-31T22:40:43.979Z,91.13
2022-07-31T22:44:10.199Z,91.26
2022-07-31T22:46:08.256Z,90.97
2022-07-31T22:48:40.696Z,91.23
2022-07-31T22:51:15.203Z,91.78
2022-07-31T22:53:49.023Z,91.24
2022-07-31T22:56:20.600Z,91.09
2022-07-31T22:58:51.952Z,91.68
2022-07-31T23:01:23.267Z,91.62
2022-07-31T23:03:54.759Z,91.84
2022-07-31T23:06:32.345Z,91.91
2022-07-31T23:09:04.085Z,91.54
2022-07-31T23:11:35.499Z,91.48
2022-07-31T23:14:06.826Z,91.45
2022-07-31T23:16:38.151Z,91.62
2022-07-31T23:19:09.763Z,91.86
2022-07-31T23:21:41.212Z,91.53
2022-07-31T23:24:12.636Z,91.63
2022-07-31T23:26:43.995Z,91.70
2022-07-31T23:29:15.362Z,91.85
2022-07-31T23:31:46.669Z,91.57
2022-07-31T23:34:18.047Z,91.87
2022-07-31T23:36:49.355Z,91.25
2022-07-31T23:39:22.879Z,91.63
2022-07-31T23:42:12.681Z,91.40
2022-07-31T23:44:46.316Z,91.79
2022-07-31T23:47:18.036Z,91.56
2022-07-31T23:49:49.346Z,91.83
2022-07-31T23:52:20.645Z,91.43
2022-07-31T23:54:51.937Z,91.94
2022-07-31T23:57:23.337Z,92.10
2022-07-31T23:59:54.654Z,92.26
